sensor_id;sensor_type;location;lat;lon;timestamp;temperature;humidity
37530;DHT22;23374;52.758;6.872;2023-08-31T00:00:35;12.50;1.00
37530;DHT22;23374;52.758;6.872;2023-08-31T00:02:57;12.50;1.00
37530;DHT22;23374;52.758;6.872;2023-08-31T00:05:18;12.50;1.00
37530;DHT22;23374;52.758;6.872;2023-08-31T00:07:39;12.50;1.00
37530;DHT22;23374;52.758;6.872;2023-08-31T00:09:59;12.50;1.00
37530;DHT22;23374;52.758;6.872;2023-08-31T00:12:19;12.50;1.00
37530;DHT22;23374;52.758;6.872;2023-08-31T00:14:40;12.50;1.00
37530;DHT22;23374;52.758;6.872;2023-08-31T00:17:00;12.50;1.00
37530;DHT22;23374;52.758;6.872;2023-08-31T00:19:20;12.50;1.00
37530;DHT22;23374;52.758;6.872;2023-08-31T00:21:41;12.50;1.00
37530;DHT22;23374;52.758;6.872;2023-08-31T00:24:02;12.50;1.00
37530;DHT22;23374;52.758;6.872;2023-08-31T00:26:22;12.50;1.00
37530;DHT22;23374;52.758;6.872;2023-08-31T00:28:43;12.50;1.00
37530;DHT22;23374;52.758;6.872;2023-08-31T00:31:04;12.50;1.00
37530;DHT22;23374;52.758;6.872;2023-08-31T00:33:26;12.50;1.00
37530;DHT22;23374;52.758;6.872;2023-08-31T00:35:46;12.50;1.00
37530;DHT22;23374;52.758;6.872;2023-08-31T00:38:07;12.50;1.00
37530;DHT22;23374;52.758;6.872;2023-08-31T00:40:27;12.50;1.00
37530;DHT22;23374;52.758;6.872;2023-08-31T00:42:52;12.50;1.00
37530;DHT22;23374;52.758;6.872;2023-08-31T00:45:13;12.50;1.00
37530;DHT22;23374;52.758;6.872;2023-08-31T00:47:34;12.40;1.00
37530;DHT22;23374;52.758;6.872;2023-08-31T00:49:54;12.40;1.00
37530;DHT22;23374;52.758;6.872;2023-08-31T00:52:15;12.30;1.00
37530;DHT22;23374;52.758;6.872;2023-08-31T00:54:36;12.30;1.00
37530;DHT22;23374;52.758;6.872;2023-08-31T00:56:57;12.30;1.00
37530;DHT22;23374;52.758;6.872;2023-08-31T00:59:18;12.20;1.00
37530;DHT22;23374;52.758;6.872;2023-08-31T01:02:40;12.20;1.00
37530;DHT22;23374;52.758;6.872;2023-08-31T01:05:33;12.20;1.00
37530;DHT22;23374;52.758;6.872;2023-08-31T01:14:17;12.20;16.40
37530;DHT22;23374;52.758;6.872;2023-08-31T01:16:39;12.20;99.90
37530;DHT22;23374;52.758;6.872;2023-08-31T01:19:06;12.10;99.90
37530;DHT22;23374;52.758;6.872;2023-08-31T01:21:41;12.10;99.90
37530;DHT22;23374;52.758;6.872;2023-08-31T01:24:04;12.10;99.90
37530;DHT22;23374;52.758;6.872;2023-08-31T01:26:26;12.20;99.90
37530;DHT22;23374;52.758;6.872;2023-08-31T01:28:48;12.20;99.90
37530;DHT22;23374;52.758;6.872;2023-08-31T01:31:09;12.20;99.90
37530;DHT22;23374;52.758;6.872;2023-08-31T01:33:29;12.20;99.90
37530;DHT22;23374;52.758;6.872;2023-08-31T01:35:52;12.20;99.90
37530;DHT22;23374;52.758;6.872;2023-08-31T01:38:18;12.20;99.90
37530;DHT22;23374;52.758;6.872;2023-08-31T01:40:56;12.20;99.90
37530;DHT22;23374;52.758;6.872;2023-08-31T01:43:21;12.20;99.90
37530;DHT22;23374;52.758;6.872;2023-08-31T01:45:44;12.20;99.90
37530;DHT22;23374;52.758;6.872;2023-08-31T01:48:06;12.20;99.90
37530;DHT22;23374;52.758;6.872;2023-08-31T01:50:27;12.20;99.90
37530;DHT22;23374;52.758;6.872;2023-08-31T01:52:47;12.30;99.90
37530;DHT22;23374;52.758;6.872;2023-08-31T01:55:08;12.30;99.90
37530;DHT22;23374;52.758;6.872;2023-08-31T01:57:28;12.30;99.90
37530;DHT22;23374;52.758;6.872;2023-08-31T01:59:49;12.30;99.90
37530;DHT22;23374;52.758;6.872;2023-08-31T02:02:10;12.30;99.90
37530;DHT22;23374;52.758;6.872;2023-08-31T02:04:30;12.30;99.90
37530;DHT22;23374;52.758;6.872;2023-08-31T02:06:51;12.30;99.90
37530;DHT22;23374;52.758;6.872;2023-08-31T02:09:13;12.40;99.90
37530;DHT22;23374;52.758;6.872;2023-08-31T02:11:34;12.40;99.90
37530;DHT22;23374;52.758;6.872;2023-08-31T02:13:58;12.40;99.90
37530;DHT22;23374;52.758;6.872;2023-08-31T02:16:18;12.40;99.90
37530;DHT22;23374;52.758;6.872;2023-08-31T02:18:39;12.30;99.90
37530;DHT22;23374;52.758;6.872;2023-08-31T02:20:59;12.30;99.90
37530;DHT22;23374;52.758;6.872;2023-08-31T02:23:19;12.30;99.90
37530;DHT22;23374;52.758;6.872;2023-08-31T02:25:39;12.30;99.90
37530;DHT22;23374;52.758;6.872;2023-08-31T02:27:59;12.30;99.90
37530;DHT22;23374;52.758;6.872;2023-08-31T02:30:20;12.30;99.90
37530;DHT22;23374;52.758;6.872;2023-08-31T02:32:40;12.40;99.90
37530;DHT22;23374;52.758;6.872;2023-08-31T02:35:02;12.40;99.90
37530;DHT22;23374;52.758;6.872;2023-08-31T02:37:23;12.40;99.90
37530;DHT22;23374;52.758;6.872;2023-08-31T02:39:44;12.40;99.90
37530;DHT22;23374;52.758;6.872;2023-08-31T02:42:04;12.40;99.90
37530;DHT22;23374;52.758;6.872;2023-08-31T02:44:25;12.40;99.90
37530;DHT22;23374;52.758;6.872;2023-08-31T02:46:46;12.40;99.90
37530;DHT22;23374;52.758;6.872;2023-08-31T02:49:06;12.40;99.90
37530;DHT22;23374;52.758;6.872;2023-08-31T02:51:26;12.40;81.00
37530;DHT22;23374;52.758;6.872;2023-08-31T02:53:47;12.30;99.90
37530;DHT22;23374;52.758;6.872;2023-08-31T02:56:08;12.30;89.20
37530;DHT22;23374;52.758;6.872;2023-08-31T02:58:29;12.20;99.90
37530;DHT22;23374;52.758;6.872;2023-08-31T03:00:49;12.20;99.90
37530;DHT22;23374;52.758;6.872;2023-08-31T03:03:10;12.20;95.80
37530;DHT22;23374;52.758;6.872;2023-08-31T03:05:30;12.20;99.90
37530;DHT22;23374;52.758;6.872;2023-08-31T03:07:50;12.10;99.90
37530;DHT22;23374;52.758;6.872;2023-08-31T03:10:10;12.10;99.90
37530;DHT22;23374;52.758;6.872;2023-08-31T03:12:32;12.10;86.30
37530;DHT22;23374;52.758;6.872;2023-08-31T03:14:52;12.10;99.90
37530;DHT22;23374;52.758;6.872;2023-08-31T03:17:12;12.00;49.40
37530;DHT22;23374;52.758;6.872;2023-08-31T03:19:33;12.00;78.80
37530;DHT22;23374;52.758;6.872;2023-08-31T03:21:53;12.00;63.80
37530;DHT22;23374;52.758;6.872;2023-08-31T03:24:13;12.00;69.30
37530;DHT22;23374;52.758;6.872;2023-08-31T03:26:34;12.00;43.00
37530;DHT22;23374;52.758;6.872;2023-08-31T03:28:54;12.00;32.90
37530;DHT22;23374;52.758;6.872;2023-08-31T03:31:15;11.90;3.50
37530;DHT22;23374;52.758;6.872;2023-08-31T03:33:35;11.90;1.00
37530;DHT22;23374;52.758;6.872;2023-08-31T03:36:04;11.90;1.00
37530;DHT22;23374;52.758;6.872;2023-08-31T03:38:24;11.90;1.00
37530;DHT22;23374;52.758;6.872;2023-08-31T03:40:55;11.80;1.00
37530;DHT22;23374;52.758;6.872;2023-08-31T03:43:16;11.80;1.00
37530;DHT22;23374;52.758;6.872;2023-08-31T03:45:36;11.90;1.00
37530;DHT22;23374;52.758;6.872;2023-08-31T03:47:56;11.90;8.70
37530;DHT22;23374;52.758;6.872;2023-08-31T03:50:18;11.90;40.70
37530;DHT22;23374;52.758;6.872;2023-08-31T03:52:38;11.90;49.10
37530;DHT22;23374;52.758;6.872;2023-08-31T03:54:58;11.90;72.80
37530;DHT22;23374;52.758;6.872;2023-08-31T03:57:19;12.00;97.60
37530;DHT22;23374;52.758;6.872;2023-08-31T03:59:40;12.00;91.30
37530;DHT22;23374;52.758;6.872;2023-08-31T04:02:00;12.00;32.20
37530;DHT22;23374;52.758;6.872;2023-08-31T04:04:21;12.00;62.70
37530;DHT22;23374;52.758;6.872;2023-08-31T04:06:41;12.10;94.30
37530;DHT22;23374;52.758;6.872;2023-08-31T04:09:02;12.10;37.50
37530;DHT22;23374;52.758;6.872;2023-08-31T04:11:24;12.10;44.70
37530;DHT22;23374;52.758;6.872;2023-08-31T04:13:44;12.00;1.00
37530;DHT22;23374;52.758;6.872;2023-08-31T04:16:05;12.00;16.80
37530;DHT22;23374;52.758;6.872;2023-08-31T04:18:26;12.00;43.20
37530;DHT22;23374;52.758;6.872;2023-08-31T04:20:53;11.90;11.10
37530;DHT22;23374;52.758;6.872;2023-08-31T04:23:14;11.90;96.50
37530;DHT22;23374;52.758;6.872;2023-08-31T04:25:35;11.90;99.90
37530;DHT22;23374;52.758;6.872;2023-08-31T04:27:55;11.90;99.90
37530;DHT22;23374;52.758;6.872;2023-08-31T04:30:16;11.90;99.90
37530;DHT22;23374;52.758;6.872;2023-08-31T04:32:37;11.90;99.90
37530;DHT22;23374;52.758;6.872;2023-08-31T04:34:58;11.90;99.90
37530;DHT22;23374;52.758;6.872;2023-08-31T04:37:18;11.90;99.90
37530;DHT22;23374;52.758;6.872;2023-08-31T04:39:38;11.90;99.90
37530;DHT22;23374;52.758;6.872;2023-08-31T04:41:59;11.90;99.90
37530;DHT22;23374;52.758;6.872;2023-08-31T04:44:19;11.90;99.90
37530;DHT22;23374;52.758;6.872;2023-08-31T04:46:39;11.90;99.90
37530;DHT22;23374;52.758;6.872;2023-08-31T04:49:01;11.90;99.90
37530;DHT22;23374;52.758;6.872;2023-08-31T04:51:33;11.90;99.90
37530;DHT22;23374;52.758;6.872;2023-08-31T04:53:54;11.90;99.90
37530;DHT22;23374;52.758;6.872;2023-08-31T04:56:14;11.90;99.90
37530;DHT22;23374;52.758;6.872;2023-08-31T04:58:35;11.90;99.90
37530;DHT22;23374;52.758;6.872;2023-08-31T05:00:55;11.90;99.90
37530;DHT22;23374;52.758;6.872;2023-08-31T05:03:15;11.90;99.90
37530;DHT22;23374;52.758;6.872;2023-08-31T05:05:36;11.90;99.90
37530;DHT22;23374;52.758;6.872;2023-08-31T05:07:56;11.90;99.90
37530;DHT22;23374;52.758;6.872;2023-08-31T05:10:16;11.90;99.90
37530;DHT22;23374;52.758;6.872;2023-08-31T05:12:37;11.90;99.90
37530;DHT22;23374;52.758;6.872;2023-08-31T05:14:57;11.90;99.90
37530;DHT22;23374;52.758;6.872;2023-08-31T05:17:18;12.00;99.90
37530;DHT22;23374;52.758;6.872;2023-08-31T05:19:38;12.00;99.90
37530;DHT22;23374;52.758;6.872;2023-08-31T05:21:58;12.00;99.90
37530;DHT22;23374;52.758;6.872;2023-08-31T05:24:18;12.00;99.90
37530;DHT22;23374;52.758;6.872;2023-08-31T05:26:39;12.00;99.90
37530;DHT22;23374;52.758;6.872;2023-08-31T05:28:59;12.00;99.90
37530;DHT22;23374;52.758;6.872;2023-08-31T05:31:19;12.00;99.90
37530;DHT22;23374;52.758;6.872;2023-08-31T05:33:40;12.00;99.90
37530;DHT22;23374;52.758;6.872;2023-08-31T05:36:02;12.00;1.00
37530;DHT22;23374;52.758;6.872;2023-08-31T05:38:27;12.00;1.00
37530;DHT22;23374;52.758;6.872;2023-08-31T05:40:47;12.00;1.00
37530;DHT22;23374;52.758;6.872;2023-08-31T05:43:08;12.00;1.00
37530;DHT22;23374;52.758;6.872;2023-08-31T05:45:31;12.10;1.00
37530;DHT22;23374;52.758;6.872;2023-08-31T05:47:51;12.10;1.00
37530;DHT22;23374;52.758;6.872;2023-08-31T05:50:12;12.10;1.00
37530;DHT22;23374;52.758;6.872;2023-08-31T05:52:32;12.20;1.00
37530;DHT22;23374;52.758;6.872;2023-08-31T05:54:53;12.20;1.00
37530;DHT22;23374;52.758;6.872;2023-08-31T05:57:13;12.30;1.00
37530;DHT22;23374;52.758;6.872;2023-08-31T05:59:33;12.30;1.00
37530;DHT22;23374;52.758;6.872;2023-08-31T06:01:54;12.40;1.00
37530;DHT22;23374;52.758;6.872;2023-08-31T06:04:15;12.40;1.00
37530;DHT22;23374;52.758;6.872;2023-08-31T06:06:36;12.40;1.00
37530;DHT22;23374;52.758;6.872;2023-08-31T06:08:56;12.50;1.00
37530;DHT22;23374;52.758;6.872;2023-08-31T06:11:17;12.50;1.00
37530;DHT22;23374;52.758;6.872;2023-08-31T06:13:38;12.50;1.00
37530;DHT22;23374;52.758;6.872;2023-08-31T06:15:58;12.50;1.00
37530;DHT22;23374;52.758;6.872;2023-08-31T06:18:19;12.60;1.00
37530;DHT22;23374;52.758;6.872;2023-08-31T06:20:40;12.60;1.00
37530;DHT22;23374;52.758;6.872;2023-08-31T06:23:00;12.60;1.00
37530;DHT22;23374;52.758;6.872;2023-08-31T06:25:20;12.60;1.00
37530;DHT22;23374;52.758;6.872;2023-08-31T06:27:42;12.70;1.00
37530;DHT22;23374;52.758;6.872;2023-08-31T06:30:04;12.70;1.00
37530;DHT22;23374;52.758;6.872;2023-08-31T06:32:27;12.80;1.00
37530;DHT22;23374;52.758;6.872;2023-08-31T06:34:48;12.80;1.00
37530;DHT22;23374;52.758;6.872;2023-08-31T06:37:08;12.90;1.00
37530;DHT22;23374;52.758;6.872;2023-08-31T06:39:29;12.90;1.00
37530;DHT22;23374;52.758;6.872;2023-08-31T06:41:50;13.00;1.00
37530;DHT22;23374;52.758;6.872;2023-08-31T06:44:10;13.00;1.00
37530;DHT22;23374;52.758;6.872;2023-08-31T06:46:31;13.10;1.00
37530;DHT22;23374;52.758;6.872;2023-08-31T06:48:58;13.20;1.00
37530;DHT22;23374;52.758;6.872;2023-08-31T06:51:18;13.20;1.00
37530;DHT22;23374;52.758;6.872;2023-08-31T06:53:38;13.30;1.00
37530;DHT22;23374;52.758;6.872;2023-08-31T06:55:59;13.30;1.00
37530;DHT22;23374;52.758;6.872;2023-08-31T06:58:19;13.40;1.00
37530;DHT22;23374;52.758;6.872;2023-08-31T07:00:39;13.50;1.00
37530;DHT22;23374;52.758;6.872;2023-08-31T07:02:59;13.60;1.00
37530;DHT22;23374;52.758;6.872;2023-08-31T07:05:24;13.60;1.00
37530;DHT22;23374;52.758;6.872;2023-08-31T07:07:45;13.70;1.00
37530;DHT22;23374;52.758;6.872;2023-08-31T07:10:07;13.80;1.00
37530;DHT22;23374;52.758;6.872;2023-08-31T07:12:27;13.80;1.00
37530;DHT22;23374;52.758;6.872;2023-08-31T07:14:48;13.80;1.00
37530;DHT22;23374;52.758;6.872;2023-08-31T07:17:08;13.90;1.00
37530;DHT22;23374;52.758;6.872;2023-08-31T07:19:29;13.90;1.00
37530;DHT22;23374;52.758;6.872;2023-08-31T07:21:49;14.00;1.00
37530;DHT22;23374;52.758;6.872;2023-08-31T07:24:15;14.00;1.00
37530;DHT22;23374;52.758;6.872;2023-08-31T07:26:35;14.00;1.00
37530;DHT22;23374;52.758;6.872;2023-08-31T07:28:55;14.10;1.00
37530;DHT22;23374;52.758;6.872;2023-08-31T07:31:16;14.10;99.90
37530;DHT22;23374;52.758;6.872;2023-08-31T07:33:37;14.10;99.90
37530;DHT22;23374;52.758;6.872;2023-08-31T07:35:58;14.10;99.90
37530;DHT22;23374;52.758;6.872;2023-08-31T07:38:18;14.10;99.90
37530;DHT22;23374;52.758;6.872;2023-08-31T07:40:39;14.10;99.90
37530;DHT22;23374;52.758;6.872;2023-08-31T07:43:02;14.10;99.90
37530;DHT22;23374;52.758;6.872;2023-08-31T07:45:22;14.20;99.90
37530;DHT22;23374;52.758;6.872;2023-08-31T07:47:43;14.30;99.90
37530;DHT22;23374;52.758;6.872;2023-08-31T07:50:04;14.30;99.90
37530;DHT22;23374;52.758;6.872;2023-08-31T07:52:25;14.40;99.90
37530;DHT22;23374;52.758;6.872;2023-08-31T07:54:45;14.60;99.90
37530;DHT22;23374;52.758;6.872;2023-08-31T07:57:05;14.70;99.90
37530;DHT22;23374;52.758;6.872;2023-08-31T07:59:26;14.70;99.90
37530;DHT22;23374;52.758;6.872;2023-08-31T08:01:48;14.80;99.90
37530;DHT22;23374;52.758;6.872;2023-08-31T08:04:08;14.90;99.90
37530;DHT22;23374;52.758;6.872;2023-08-31T08:06:29;15.00;97.70
37530;DHT22;23374;52.758;6.872;2023-08-31T08:08:49;15.00;93.00
37530;DHT22;23374;52.758;6.872;2023-08-31T08:11:09;15.20;4.90
37530;DHT22;23374;52.758;6.872;2023-08-31T08:13:30;15.30;1.00
37530;DHT22;23374;52.758;6.872;2023-08-31T08:15:50;15.40;1.00
37530;DHT22;23374;52.758;6.872;2023-08-31T08:18:11;15.50;1.00
37530;DHT22;23374;52.758;6.872;2023-08-31T08:20:31;15.60;1.00
37530;DHT22;23374;52.758;6.872;2023-08-31T08:22:52;15.70;1.00
37530;DHT22;23374;52.758;6.872;2023-08-31T08:25:13;15.80;1.00
37530;DHT22;23374;52.758;6.872;2023-08-31T08:27:33;15.80;1.00
37530;DHT22;23374;52.758;6.872;2023-08-31T08:29:55;15.70;99.90
37530;DHT22;23374;52.758;6.872;2023-08-31T08:32:15;15.70;1.00
37530;DHT22;23374;52.758;6.872;2023-08-31T08:34:36;15.70;1.00
37530;DHT22;23374;52.758;6.872;2023-08-31T08:36:56;15.70;1.00
37530;DHT22;23374;52.758;6.872;2023-08-31T08:39:17;15.90;1.00
37530;DHT22;23374;52.758;6.872;2023-08-31T08:41:37;16.00;1.00
37530;DHT22;23374;52.758;6.872;2023-08-31T08:44:02;16.10;99.90
37530;DHT22;23374;52.758;6.872;2023-08-31T08:46:26;16.20;99.90
37530;DHT22;23374;52.758;6.872;2023-08-31T08:48:47;16.20;3.80
37530;DHT22;23374;52.758;6.872;2023-08-31T08:51:09;16.30;1.00
37530;DHT22;23374;52.758;6.872;2023-08-31T08:53:30;16.30;1.00
37530;DHT22;23374;52.758;6.872;2023-08-31T08:55:50;16.40;99.90
37530;DHT22;23374;52.758;6.872;2023-08-31T08:58:10;16.50;1.00
37530;DHT22;23374;52.758;6.872;2023-08-31T09:00:31;16.60;99.90
37530;DHT22;23374;52.758;6.872;2023-08-31T09:02:52;16.70;99.90
37530;DHT22;23374;52.758;6.872;2023-08-31T09:05:15;16.80;99.90
37530;DHT22;23374;52.758;6.872;2023-08-31T09:07:36;16.80;99.90
37530;DHT22;23374;52.758;6.872;2023-08-31T09:09:57;16.90;99.90
37530;DHT22;23374;52.758;6.872;2023-08-31T09:12:22;17.00;99.90
37530;DHT22;23374;52.758;6.872;2023-08-31T09:14:56;17.00;1.00
37530;DHT22;23374;52.758;6.872;2023-08-31T09:17:16;17.10;1.00
37530;DHT22;23374;52.758;6.872;2023-08-31T09:19:37;17.10;99.90
37530;DHT22;23374;52.758;6.872;2023-08-31T09:21:57;17.10;1.00
37530;DHT22;23374;52.758;6.872;2023-08-31T09:24:18;17.10;1.00
37530;DHT22;23374;52.758;6.872;2023-08-31T09:26:47;17.00;1.00
37530;DHT22;23374;52.758;6.872;2023-08-31T09:29:08;16.90;1.00
37530;DHT22;23374;52.758;6.872;2023-08-31T09:31:29;16.80;1.00
37530;DHT22;23374;52.758;6.872;2023-08-31T09:33:51;16.70;1.00
37530;DHT22;23374;52.758;6.872;2023-08-31T09:36:15;16.70;1.00
37530;DHT22;23374;52.758;6.872;2023-08-31T09:38:42;16.70;99.90
37530;DHT22;23374;52.758;6.872;2023-08-31T09:41:05;16.70;1.00
37530;DHT22;23374;52.758;6.872;2023-08-31T09:43:28;16.60;1.00
37530;DHT22;23374;52.758;6.872;2023-08-31T09:45:49;16.60;43.20
37530;DHT22;23374;52.758;6.872;2023-08-31T09:48:11;16.70;99.90
37530;DHT22;23374;52.758;6.872;2023-08-31T09:50:33;16.70;22.80
37530;DHT22;23374;52.758;6.872;2023-08-31T09:52:56;16.90;55.20
37530;DHT22;23374;52.758;6.872;2023-08-31T09:55:21;17.00;1.00
37530;DHT22;23374;52.758;6.872;2023-08-31T09:57:42;17.10;99.90
37530;DHT22;23374;52.758;6.872;2023-08-31T10:00:07;17.30;1.00
37530;DHT22;23374;52.758;6.872;2023-08-31T10:02:29;17.40;1.00
37530;DHT22;23374;52.758;6.872;2023-08-31T10:04:50;17.50;99.90
37530;DHT22;23374;52.758;6.872;2023-08-31T10:07:13;17.60;1.00
37530;DHT22;23374;52.758;6.872;2023-08-31T10:09:34;17.70;1.00
37530;DHT22;23374;52.758;6.872;2023-08-31T10:11:57;17.80;1.00
37530;DHT22;23374;52.758;6.872;2023-08-31T10:14:18;17.80;99.90
37530;DHT22;23374;52.758;6.872;2023-08-31T10:16:41;17.80;99.90
37530;DHT22;23374;52.758;6.872;2023-08-31T10:19:04;17.70;99.90
37530;DHT22;23374;52.758;6.872;2023-08-31T10:21:24;17.70;99.90
37530;DHT22;23374;52.758;6.872;2023-08-31T10:23:49;17.70;1.00
37530;DHT22;23374;52.758;6.872;2023-08-31T10:26:10;17.60;1.00
37530;DHT22;23374;52.758;6.872;2023-08-31T10:28:39;17.60;99.90
37530;DHT22;23374;52.758;6.872;2023-08-31T10:31:36;17.40;99.90
37530;DHT22;23374;52.758;6.872;2023-08-31T10:34:05;17.10;99.90
37530;DHT22;23374;52.758;6.872;2023-08-31T10:36:44;17.10;1.00
37530;DHT22;23374;52.758;6.872;2023-08-31T10:39:18;17.10;1.00
37530;DHT22;23374;52.758;6.872;2023-08-31T10:41:40;17.20;1.00
37530;DHT22;23374;52.758;6.872;2023-08-31T10:44:00;17.40;16.70
37530;DHT22;23374;52.758;6.872;2023-08-31T10:47:04;17.50;99.90
37530;DHT22;23374;52.758;6.872;2023-08-31T10:49:25;17.40;30.90
37530;DHT22;23374;52.758;6.872;2023-08-31T10:51:57;17.50;99.90
37530;DHT22;23374;52.758;6.872;2023-08-31T10:54:33;17.40;1.00
37530;DHT22;23374;52.758;6.872;2023-08-31T10:57:05;17.40;99.90
37530;DHT22;23374;52.758;6.872;2023-08-31T10:59:46;17.20;99.90
37530;DHT22;23374;52.758;6.872;2023-08-31T11:02:07;16.90;1.00
37530;DHT22;23374;52.758;6.872;2023-08-31T11:04:29;16.60;1.00
37530;DHT22;23374;52.758;6.872;2023-08-31T11:07:11;16.40;1.00
37530;DHT22;23374;52.758;6.872;2023-08-31T11:09:31;16.30;1.00
37530;DHT22;23374;52.758;6.872;2023-08-31T11:11:53;16.20;1.00
37530;DHT22;23374;52.758;6.872;2023-08-31T11:14:14;16.20;35.30
37530;DHT22;23374;52.758;6.872;2023-08-31T11:16:38;16.10;81.00
37530;DHT22;23374;52.758;6.872;2023-08-31T11:18:59;16.10;99.90
37530;DHT22;23374;52.758;6.872;2023-08-31T11:21:20;16.20;99.90
37530;DHT22;23374;52.758;6.872;2023-08-31T11:23:41;16.40;1.00
37530;DHT22;23374;52.758;6.872;2023-08-31T11:26:02;16.60;1.00
37530;DHT22;23374;52.758;6.872;2023-08-31T11:28:23;16.80;1.00
37530;DHT22;23374;52.758;6.872;2023-08-31T11:30:43;17.00;1.00
37530;DHT22;23374;52.758;6.872;2023-08-31T11:33:08;17.20;1.00
37530;DHT22;23374;52.758;6.872;2023-08-31T11:35:35;17.40;99.90
37530;DHT22;23374;52.758;6.872;2023-08-31T11:37:56;17.50;99.90
37530;DHT22;23374;52.758;6.872;2023-08-31T11:40:17;17.70;58.50
37530;DHT22;23374;52.758;6.872;2023-08-31T11:42:37;17.80;1.00
37530;DHT22;23374;52.758;6.872;2023-08-31T11:44:58;17.90;39.40
37530;DHT22;23374;52.758;6.872;2023-08-31T11:47:19;18.00;1.00
37530;DHT22;23374;52.758;6.872;2023-08-31T11:49:41;18.10;1.00
37530;DHT22;23374;52.758;6.872;2023-08-31T11:52:02;18.20;1.00
37530;DHT22;23374;52.758;6.872;2023-08-31T11:54:26;18.20;1.00
37530;DHT22;23374;52.758;6.872;2023-08-31T11:56:47;18.30;1.00
37530;DHT22;23374;52.758;6.872;2023-08-31T11:59:12;18.30;99.90
37530;DHT22;23374;52.758;6.872;2023-08-31T12:01:32;18.20;1.00
37530;DHT22;23374;52.758;6.872;2023-08-31T12:03:54;18.10;56.80
37530;DHT22;23374;52.758;6.872;2023-08-31T12:06:17;18.10;99.90
37530;DHT22;23374;52.758;6.872;2023-08-31T12:08:38;18.20;99.90
37530;DHT22;23374;52.758;6.872;2023-08-31T12:11:00;18.10;1.00
37530;DHT22;23374;52.758;6.872;2023-08-31T12:13:25;18.10;1.00
37530;DHT22;23374;52.758;6.872;2023-08-31T12:15:46;18.10;1.00
37530;DHT22;23374;52.758;6.872;2023-08-31T12:18:12;18.20;1.00
37530;DHT22;23374;52.758;6.872;2023-08-31T12:20:33;18.20;1.00
37530;DHT22;23374;52.758;6.872;2023-08-31T12:23:01;18.10;1.00
37530;DHT22;23374;52.758;6.872;2023-08-31T12:25:23;18.20;1.00
37530;DHT22;23374;52.758;6.872;2023-08-31T12:27:43;18.20;1.00
37530;DHT22;23374;52.758;6.872;2023-08-31T12:30:05;18.30;99.90
37530;DHT22;23374;52.758;6.872;2023-08-31T12:32:26;18.30;1.00
37530;DHT22;23374;52.758;6.872;2023-08-31T12:34:46;18.30;1.00
37530;DHT22;23374;52.758;6.872;2023-08-31T12:37:07;18.30;73.20
37530;DHT22;23374;52.758;6.872;2023-08-31T12:39:27;18.50;92.60
37530;DHT22;23374;52.758;6.872;2023-08-31T12:41:48;18.60;99.90
37530;DHT22;23374;52.758;6.872;2023-08-31T12:44:09;18.60;1.00
37530;DHT22;23374;52.758;6.872;2023-08-31T12:46:31;18.50;99.90
37530;DHT22;23374;52.758;6.872;2023-08-31T12:48:51;18.40;99.90
37530;DHT22;23374;52.758;6.872;2023-08-31T12:51:12;18.40;99.90
37530;DHT22;23374;52.758;6.872;2023-08-31T12:53:32;18.40;61.10
37530;DHT22;23374;52.758;6.872;2023-08-31T12:55:57;18.40;1.00
37530;DHT22;23374;52.758;6.872;2023-08-31T12:58:17;18.40;1.00
37530;DHT22;23374;52.758;6.872;2023-08-31T13:00:38;18.40;46.40
37530;DHT22;23374;52.758;6.872;2023-08-31T13:03:00;18.40;1.00
37530;DHT22;23374;52.758;6.872;2023-08-31T13:05:23;18.30;54.80
37530;DHT22;23374;52.758;6.872;2023-08-31T13:07:44;18.20;1.00
37530;DHT22;23374;52.758;6.872;2023-08-31T13:10:06;18.10;99.90
37530;DHT22;23374;52.758;6.872;2023-08-31T13:12:26;18.10;99.90
37530;DHT22;23374;52.758;6.872;2023-08-31T13:14:47;18.10;99.90
37530;DHT22;23374;52.758;6.872;2023-08-31T13:17:07;18.10;99.90
37530;DHT22;23374;52.758;6.872;2023-08-31T13:19:28;18.10;99.90
37530;DHT22;23374;52.758;6.872;2023-08-31T13:21:48;18.10;99.90
37530;DHT22;23374;52.758;6.872;2023-08-31T13:24:09;18.10;99.90
37530;DHT22;23374;52.758;6.872;2023-08-31T13:26:29;18.00;99.90
37530;DHT22;23374;52.758;6.872;2023-08-31T13:28:50;18.00;99.90
37530;DHT22;23374;52.758;6.872;2023-08-31T13:31:10;17.90;99.90
37530;DHT22;23374;52.758;6.872;2023-08-31T13:33:32;17.80;1.00
37530;DHT22;23374;52.758;6.872;2023-08-31T13:35:52;17.70;1.00
37530;DHT22;23374;52.758;6.872;2023-08-31T13:38:12;17.70;99.90
37530;DHT22;23374;52.758;6.872;2023-08-31T13:40:34;17.70;1.00
37530;DHT22;23374;52.758;6.872;2023-08-31T13:42:58;17.70;99.90
37530;DHT22;23374;52.758;6.872;2023-08-31T13:45:21;17.60;1.00
37530;DHT22;23374;52.758;6.872;2023-08-31T13:47:41;17.50;1.00
37530;DHT22;23374;52.758;6.872;2023-08-31T13:50:08;17.50;1.00
37530;DHT22;23374;52.758;6.872;2023-08-31T13:52:28;17.40;1.00
37530;DHT22;23374;52.758;6.872;2023-08-31T13:54:48;17.40;1.00
37530;DHT22;23374;52.758;6.872;2023-08-31T13:57:09;17.30;99.90
37530;DHT22;23374;52.758;6.872;2023-08-31T13:59:29;17.30;99.90
37530;DHT22;23374;52.758;6.872;2023-08-31T14:01:50;17.50;44.60
37530;DHT22;23374;52.758;6.872;2023-08-31T14:04:11;17.60;1.00
37530;DHT22;23374;52.758;6.872;2023-08-31T14:06:32;17.70;1.00
37530;DHT22;23374;52.758;6.872;2023-08-31T14:08:53;17.90;1.00
37530;DHT22;23374;52.758;6.872;2023-08-31T14:11:14;18.10;86.10
37530;DHT22;23374;52.758;6.872;2023-08-31T14:13:35;18.40;1.00
37530;DHT22;23374;52.758;6.872;2023-08-31T14:15:55;18.60;63.20
37530;DHT22;23374;52.758;6.872;2023-08-31T14:18:17;18.80;1.00
37530;DHT22;23374;52.758;6.872;2023-08-31T14:20:38;18.90;1.00
37530;DHT22;23374;52.758;6.872;2023-08-31T14:22:58;19.00;1.00
37530;DHT22;23374;52.758;6.872;2023-08-31T14:25:18;19.20;1.00
37530;DHT22;23374;52.758;6.872;2023-08-31T14:27:39;19.30;1.00
37530;DHT22;23374;52.758;6.872;2023-08-31T14:29:59;19.50;1.00
37530;DHT22;23374;52.758;6.872;2023-08-31T14:32:20;19.60;1.00
37530;DHT22;23374;52.758;6.872;2023-08-31T14:34:40;19.70;1.00
37530;DHT22;23374;52.758;6.872;2023-08-31T14:37:01;19.60;99.90
37530;DHT22;23374;52.758;6.872;2023-08-31T14:39:21;19.50;1.00
37530;DHT22;23374;52.758;6.872;2023-08-31T14:41:42;19.50;1.00
37530;DHT22;23374;52.758;6.872;2023-08-31T14:44:03;19.50;1.00
37530;DHT22;23374;52.758;6.872;2023-08-31T14:46:23;19.50;1.00
37530;DHT22;23374;52.758;6.872;2023-08-31T14:48:44;19.60;1.00
37530;DHT22;23374;52.758;6.872;2023-08-31T14:51:04;19.60;1.00
37530;DHT22;23374;52.758;6.872;2023-08-31T14:53:25;19.70;1.00
37530;DHT22;23374;52.758;6.872;2023-08-31T14:55:50;19.70;1.00
37530;DHT22;23374;52.758;6.872;2023-08-31T14:58:10;19.70;1.00
37530;DHT22;23374;52.758;6.872;2023-08-31T15:00:31;19.80;1.00
37530;DHT22;23374;52.758;6.872;2023-08-31T15:02:51;19.90;1.00
37530;DHT22;23374;52.758;6.872;2023-08-31T15:05:12;19.90;99.90
37530;DHT22;23374;52.758;6.872;2023-08-31T15:07:32;20.00;99.90
37530;DHT22;23374;52.758;6.872;2023-08-31T15:09:53;20.10;99.90